sensor_id;sensor_type;location;lat;lon;timestamp;pressure;altitude;pressure_sealevel;temperature;humidity
84271;BME280;74614;50.032;19.566;2024-01-11T00:00:23;99862.27;;;-10.16;77.53
84271;BME280;74614;50.032;19.566;2024-01-11T00:02:25;99853.59;;;-9.90;76.55
84271;BME280;74614;50.032;19.566;2024-01-11T00:04:24;99860.25;;;-9.69;75.39
84271;BME280;74614;50.032;19.566;2024-01-11T00:06:24;99861.46;;;-9.55;75.80
84271;BME280;74614;50.032;19.566;2024-01-11T00:08:24;99865.65;;;-9.41;73.02
84271;BME280;74614;50.032;19.566;2024-01-11T00:10:24;99855.60;;;-9.37;73.29
84271;BME280;74614;50.032;19.566;2024-01-11T00:12:24;99847.65;;;-9.34;75.49
84271;BME280;74614;50.032;19.566;2024-01-11T00:14:27;99843.21;;;-9.21;76.00
84271;BME280;74614;50.032;19.566;2024-01-11T00:16:25;99845.94;;;-9.07;75.23
84271;BME280;74614;50.032;19.566;2024-01-11T00:18:24;99843.39;;;-9.03;75.11
84271;BME280;74614;50.032;19.566;2024-01-11T00:20:23;99832.43;;;-9.01;74.80
84271;BME280;74614;50.032;19.566;2024-01-11T00:22:23;99820.87;;;-8.96;74.46
84271;BME280;74614;50.032;19.566;2024-01-11T00:24:25;99814.41;;;-8.97;74.32
84271;BME280;74614;50.032;19.566;2024-01-11T00:26:24;99817.69;;;-8.96;73.81
84271;BME280;74614;50.032;19.566;2024-01-11T00:28:23;99823.94;;;-8.96;73.67
84271;BME280;74614;50.032;19.566;2024-01-11T00:30:24;99830.17;;;-8.91;73.43
84271;BME280;74614;50.032;19.566;2024-01-11T00:32:26;99828.74;;;-8.88;73.16
84271;BME280;74614;50.032;19.566;2024-01-11T00:34:23;99825.77;;;-8.82;72.41
84271;BME280;74614;50.032;19.566;2024-01-11T00:36:29;99827.48;;;-8.80;72.29
84271;BME280;74614;50.032;19.566;2024-01-11T00:38:32;99832.27;;;-8.78;71.99
84271;BME280;74614;50.032;19.566;2024-01-11T00:40:25;99831.30;;;-8.77;71.01
84271;BME280;74614;50.032;19.566;2024-01-11T00:42:23;99829.69;;;-8.77;70.63
84271;BME280;74614;50.032;19.566;2024-01-11T00:44:25;99828.24;;;-8.75;70.45
84271;BME280;74614;50.032;19.566;2024-01-11T00:46:25;99821.48;;;-8.75;70.23
84271;BME280;74614;50.032;19.566;2024-01-11T00:48:24;99819.12;;;-8.75;70.29
84271;BME280;74614;50.032;19.566;2024-01-11T00:50:24;99824.07;;;-8.71;70.20
84271;BME280;74614;50.032;19.566;2024-01-11T00:52:24;99826.24;;;-8.71;69.84
84271;BME280;74614;50.032;19.566;2024-01-11T00:54:32;99821.62;;;-8.73;69.78
84271;BME280;74614;50.032;19.566;2024-01-11T00:56:24;99816.72;;;-8.69;69.80
84271;BME280;74614;50.032;19.566;2024-01-11T00:58:23;99804.70;;;-8.74;69.71
84271;BME280;74614;50.032;19.566;2024-01-11T01:00:26;99807.87;;;-8.72;70.61
84271;BME280;74614;50.032;19.566;2024-01-11T01:02:23;99797.59;;;-8.68;69.83
84271;BME280;74614;50.032;19.566;2024-01-11T01:04:30;99806.49;;;-8.65;69.74
84271;BME280;74614;50.032;19.566;2024-01-11T01:06:32;99805.24;;;-8.67;69.52
84271;BME280;74614;50.032;19.566;2024-01-11T01:08:24;99803.68;;;-8.72;69.44
84271;BME280;74614;50.032;19.566;2024-01-11T01:10:22;99806.74;;;-8.77;69.23
84271;BME280;74614;50.032;19.566;2024-01-11T01:12:29;99811.03;;;-8.74;69.22
84271;BME280;74614;50.032;19.566;2024-01-11T01:14:25;99802.20;;;-8.75;69.22
84271;BME280;74614;50.032;19.566;2024-01-11T01:16:25;99795.11;;;-8.77;69.18
84271;BME280;74614;50.032;19.566;2024-01-11T01:18:25;99797.70;;;-8.79;69.29
84271;BME280;74614;50.032;19.566;2024-01-11T01:20:30;99802.54;;;-8.77;69.50
84271;BME280;74614;50.032;19.566;2024-01-11T01:22:27;99802.20;;;-8.70;69.58
84271;BME280;74614;50.032;19.566;2024-01-11T01:24:23;99808.38;;;-8.64;69.02
84271;BME280;74614;50.032;19.566;2024-01-11T01:26:24;99804.27;;;-8.65;68.82
84271;BME280;74614;50.032;19.566;2024-01-11T01:28:24;99797.80;;;-8.66;68.79
84271;BME280;74614;50.032;19.566;2024-01-11T01:30:25;99791.30;;;-8.65;69.22
84271;BME280;74614;50.032;19.566;2024-01-11T01:32:24;99778.08;;;-8.60;69.49
84271;BME280;74614;50.032;19.566;2024-01-11T01:34:26;99777.74;;;-8.55;69.23
84271;BME280;74614;50.032;19.566;2024-01-11T01:36:26;99777.96;;;-8.51;69.15
84271;BME280;74614;50.032;19.566;2024-01-11T01:38:29;99770.42;;;-8.41;68.64
84271;BME280;74614;50.032;19.566;2024-01-11T01:40:23;99768.50;;;-8.31;68.58
84271;BME280;74614;50.032;19.566;2024-01-11T01:42:24;99780.67;;;-8.28;68.54
84271;BME280;74614;50.032;19.566;2024-01-11T01:44:24;99784.44;;;-8.26;68.19
84271;BME280;74614;50.032;19.566;2024-01-11T01:46:25;99780.80;;;-8.26;68.31
84271;BME280;74614;50.032;19.566;2024-01-11T01:48:24;99786.72;;;-8.25;68.21
84271;BME280;74614;50.032;19.566;2024-01-11T01:50:26;99781.39;;;-8.15;68.15
84271;BME280;74614;50.032;19.566;2024-01-11T01:52:25;99776.98;;;-8.12;67.95
84271;BME280;74614;50.032;19.566;2024-01-11T01:54:27;99770.71;;;-8.10;67.90
84271;BME280;74614;50.032;19.566;2024-01-11T01:56:25;99772.12;;;-8.07;67.82
84271;BME280;74614;50.032;19.566;2024-01-11T01:58:29;99770.74;;;-8.09;67.60
84271;BME280;74614;50.032;19.566;2024-01-11T02:00:28;99767.57;;;-8.06;67.55
84271;BME280;74614;50.032;19.566;2024-01-11T02:02:23;99764.80;;;-8.03;67.10
84271;BME280;74614;50.032;19.566;2024-01-11T02:04:27;99760.42;;;-7.90;66.81
84271;BME280;74614;50.032;19.566;2024-01-11T02:06:25;99757.38;;;-7.79;66.99
84271;BME280;74614;50.032;19.566;2024-01-11T02:08:27;99767.67;;;-7.78;66.85
84271;BME280;74614;50.032;19.566;2024-01-11T02:10:25;99775.51;;;-7.75;66.64
84271;BME280;74614;50.032;19.566;2024-01-11T02:12:24;99772.47;;;-8.00;65.58
84271;BME280;74614;50.032;19.566;2024-01-11T02:14:24;99776.05;;;-8.22;65.44
84271;BME280;74614;50.032;19.566;2024-01-11T02:16:29;99781.38;;;-8.46;66.08
84271;BME280;74614;50.032;19.566;2024-01-11T02:18:24;99773.49;;;-8.59;66.59
84271;BME280;74614;50.032;19.566;2024-01-11T02:20:24;99770.34;;;-8.70;66.60
84271;BME280;74614;50.032;19.566;2024-01-11T02:22:28;99767.58;;;-8.72;68.21
84271;BME280;74614;50.032;19.566;2024-01-11T02:24:27;99765.83;;;-8.66;67.29
84271;BME280;74614;50.032;19.566;2024-01-11T02:26:29;99764.91;;;-8.96;65.92
84271;BME280;74614;50.032;19.566;2024-01-11T02:28:29;99766.81;;;-9.28;66.60
84271;BME280;74614;50.032;19.566;2024-01-11T02:30:23;99761.26;;;-9.60;67.16
84271;BME280;74614;50.032;19.566;2024-01-11T02:32:26;99758.07;;;-9.89;67.26
84271;BME280;74614;50.032;19.566;2024-01-11T02:34:25;99762.10;;;-10.16;68.32
84271;BME280;74614;50.032;19.566;2024-01-11T02:36:27;99759.75;;;-10.44;68.87
84271;BME280;74614;50.032;19.566;2024-01-11T02:38:25;99763.48;;;-10.61;69.78
84271;BME280;74614;50.032;19.566;2024-01-11T02:40:29;99765.47;;;-10.69;70.47
84271;BME280;74614;50.032;19.566;2024-01-11T02:42:23;99759.53;;;-10.77;70.63
84271;BME280;74614;50.032;19.566;2024-01-11T02:44:25;99750.19;;;-10.85;70.64
84271;BME280;74614;50.032;19.566;2024-01-11T02:46:28;99750.09;;;-10.94;71.18
84271;BME280;74614;50.032;19.566;2024-01-11T02:48:27;99748.82;;;-11.02;71.84
84271;BME280;74614;50.032;19.566;2024-01-11T02:50:25;99751.05;;;-11.06;71.77
84271;BME280;74614;50.032;19.566;2024-01-11T02:52:24;99752.68;;;-11.10;72.55
84271;BME280;74614;50.032;19.566;2024-01-11T02:54:25;99752.86;;;-11.17;72.81
84271;BME280;74614;50.032;19.566;2024-01-11T02:56:28;99760.99;;;-11.19;72.53
84271;BME280;74614;50.032;19.566;2024-01-11T02:58:25;99773.10;;;-11.22;72.67
84271;BME280;74614;50.032;19.566;2024-01-11T03:00:25;99767.82;;;-11.21;72.10
84271;BME280;74614;50.032;19.566;2024-01-11T03:02:23;99768.03;;;-11.24;72.35
84271;BME280;74614;50.032;19.566;2024-01-11T03:04:23;99756.24;;;-11.28;72.53
84271;BME280;74614;50.032;19.566;2024-01-11T03:06:26;99761.99;;;-11.31;72.50
84271;BME280;74614;50.032;19.566;2024-01-11T03:08:25;99760.83;;;-11.34;72.88
84271;BME280;74614;50.032;19.566;2024-01-11T03:10:31;99766.31;;;-11.37;72.93
84271;BME280;74614;50.032;19.566;2024-01-11T03:12:24;99773.99;;;-11.39;73.34
84271;BME280;74614;50.032;19.566;2024-01-11T03:14:24;99774.22;;;-11.44;73.75
84271;BME280;74614;50.032;19.566;2024-01-11T03:16:24;99774.49;;;-11.44;73.70
84271;BME280;74614;50.032;19.566;2024-01-11T03:18:26;99768.03;;;-11.42;73.40
84271;BME280;74614;50.032;19.566;2024-01-11T03:20:28;99756.98;;;-11.45;73.22
84271;BME280;74614;50.032;19.566;2024-01-11T03:22:23;99754.42;;;-11.50;72.87
84271;BME280;74614;50.032;19.566;2024-01-11T03:24:23;99753.35;;;-11.53;73.27
84271;BME280;74614;50.032;19.566;2024-01-11T03:26:23;99755.02;;;-11.54;73.45
84271;BME280;74614;50.032;19.566;2024-01-11T03:28:22;99759.37;;;-11.52;73.85
84271;BME280;74614;50.032;19.566;2024-01-11T03:30:26;99757.43;;;-11.52;74.07
84271;BME280;74614;50.032;19.566;2024-01-11T03:32:26;99742.45;;;-11.56;73.43
84271;BME280;74614;50.032;19.566;2024-01-11T03:34:24;99734.77;;;-11.66;73.02
84271;BME280;74614;50.032;19.566;2024-01-11T03:36:24;99733.04;;;-11.71;73.17
84271;BME280;74614;50.032;19.566;2024-01-11T03:38:25;99731.65;;;-11.75;74.06
84271;BME280;74614;50.032;19.566;2024-01-11T03:40:26;99727.81;;;-11.75;74.29
84271;BME280;74614;50.032;19.566;2024-01-11T03:42:24;99724.36;;;-11.71;74.75
84271;BME280;74614;50.032;19.566;2024-01-11T03:44:24;99727.76;;;-11.70;74.65
84271;BME280;74614;50.032;19.566;2024-01-11T03:46:26;99726.70;;;-11.64;75.52
84271;BME280;74614;50.032;19.566;2024-01-11T03:48:24;99727.43;;;-11.54;75.63
84271;BME280;74614;50.032;19.566;2024-01-11T03:50:25;99722.16;;;-11.46;75.24
84271;BME280;74614;50.032;19.566;2024-01-11T03:52:23;99720.77;;;-11.35;75.26
84271;BME280;74614;50.032;19.566;2024-01-11T03:54:26;99718.19;;;-11.28;75.43
84271;BME280;74614;50.032;19.566;2024-01-11T03:56:24;99718.40;;;-11.17;75.16
84271;BME280;74614;50.032;19.566;2024-01-11T03:58:25;99727.71;;;-11.04;75.55
84271;BME280;74614;50.032;19.566;2024-01-11T04:00:25;99729.13;;;-10.88;75.27
84271;BME280;74614;50.032;19.566;2024-01-11T04:02:23;99732.16;;;-10.73;74.74
84271;BME280;74614;50.032;19.566;2024-01-11T04:04:24;99728.63;;;-10.65;75.27
84271;BME280;74614;50.032;19.566;2024-01-11T04:06:25;99730.83;;;-10.42;74.79
84271;BME280;74614;50.032;19.566;2024-01-11T04:08:24;99741.84;;;-10.28;73.94
84271;BME280;74614;50.032;19.566;2024-01-11T04:10:23;99743.00;;;-10.18;73.69
84271;BME280;74614;50.032;19.566;2024-01-11T04:12:28;99736.94;;;-10.12;73.83
84271;BME280;74614;50.032;19.566;2024-01-11T04:14:28;99729.31;;;-10.02;73.45
84271;BME280;74614;50.032;19.566;2024-01-11T04:14:29;99736.35;;;-10.02;73.47
84271;BME280;74614;50.032;19.566;2024-01-11T04:16:23;99728.39;;;-9.98;73.22
84271;BME280;74614;50.032;19.566;2024-01-11T04:18:27;99733.89;;;-9.95;73.08
84271;BME280;74614;50.032;19.566;2024-01-11T04:20:23;99728.80;;;-9.94;73.01
84271;BME280;74614;50.032;19.566;2024-01-11T04:22:32;99720.82;;;-9.93;72.88
84271;BME280;74614;50.032;19.566;2024-01-11T04:24:23;99723.55;;;-9.93;72.59
84271;BME280;74614;50.032;19.566;2024-01-11T04:26:33;99726.15;;;-9.96;72.59
84271;BME280;74614;50.032;19.566;2024-01-11T04:29:23;99723.27;;;-10.00;72.51
84271;BME280;74614;50.032;19.566;2024-01-11T04:31:29;99716.28;;;-9.97;72.23
84271;BME280;74614;50.032;19.566;2024-01-11T04:33:33;99710.25;;;-10.02;72.30
84271;BME280;74614;50.032;19.566;2024-01-11T04:35:24;99696.28;;;-10.09;72.22
84271;BME280;74614;50.032;19.566;2024-01-11T04:37:30;99690.23;;;-10.12;71.92
84271;BME280;74614;50.032;19.566;2024-01-11T04:39:27;99700.15;;;-10.12;71.91
84271;BME280;74614;50.032;19.566;2024-01-11T04:41:23;99708.72;;;-10.10;71.88
84271;BME280;74614;50.032;19.566;2024-01-11T04:43:29;99703.19;;;-10.06;71.99
84271;BME280;74614;50.032;19.566;2024-01-11T04:45:24;99705.85;;;-10.04;71.62
84271;BME280;74614;50.032;19.566;2024-01-11T04:47:24;99705.80;;;-9.98;71.78
84271;BME280;74614;50.032;19.566;2024-01-11T04:49:23;99695.44;;;-9.98;71.41
84271;BME280;74614;50.032;19.566;2024-01-11T04:51:23;99691.59;;;-9.98;71.46
84271;BME280;74614;50.032;19.566;2024-01-11T04:53:27;99691.13;;;-9.96;71.47
84271;BME280;74614;50.032;19.566;2024-01-11T04:55:25;99682.67;;;-9.99;71.58
84271;BME280;74614;50.032;19.566;2024-01-11T04:57:23;99682.87;;;-9.96;71.53
84271;BME280;74614;50.032;19.566;2024-01-11T04:59:25;99681.98;;;-9.95;71.31
84271;BME280;74614;50.032;19.566;2024-01-11T05:01:23;99692.11;;;-9.94;71.53
84271;BME280;74614;50.032;19.566;2024-01-11T05:03:23;99692.80;;;-9.88;71.34
84271;BME280;74614;50.032;19.566;2024-01-11T05:05:26;99687.09;;;-9.84;71.18
84271;BME280;74614;50.032;19.566;2024-01-11T05:07:24;99692.24;;;-9.81;71.10
84271;BME280;74614;50.032;19.566;2024-01-11T05:09:26;99686.78;;;-9.81;71.06
84271;BME280;74614;50.032;19.566;2024-01-11T05:11:28;99693.43;;;-9.82;71.20
84271;BME280;74614;50.032;19.566;2024-01-11T05:13:24;99693.17;;;-9.79;71.02
84271;BME280;74614;50.032;19.566;2024-01-11T05:15:24;99685.44;;;-9.82;70.98
84271;BME280;74614;50.032;19.566;2024-01-11T05:17:26;99682.83;;;-9.89;71.45
84271;BME280;74614;50.032;19.566;2024-01-11T05:19:23;99685.81;;;-9.85;71.51
84271;BME280;74614;50.032;19.566;2024-01-11T05:21:23;99677.08;;;-9.82;71.53
84271;BME280;74614;50.032;19.566;2024-01-11T05:23:25;99662.91;;;-9.81;71.53
84271;BME280;74614;50.032;19.566;2024-01-11T05:25:22;99652.61;;;-9.87;71.96
84271;BME280;74614;50.032;19.566;2024-01-11T05:27:23;99644.80;;;-9.88;72.20
84271;BME280;74614;50.032;19.566;2024-01-11T05:29:25;99646.62;;;-9.86;71.94
84271;BME280;74614;50.032;19.566;2024-01-11T05:31:26;99648.86;;;-9.91;72.21
84271;BME280;74614;50.032;19.566;2024-01-11T05:33:24;99638.59;;;-9.80;71.80
84271;BME280;74614;50.032;19.566;2024-01-11T05:35:26;99625.05;;;-9.82;72.06
84271;BME280;74614;50.032;19.566;2024-01-11T05:37:25;99630.99;;;-9.79;71.85
84271;BME280;74614;50.032;19.566;2024-01-11T05:39:23;99638.21;;;-9.76;71.59
84271;BME280;74614;50.032;19.566;2024-01-11T05:41:27;99646.53;;;-9.76;71.57
84271;BME280;74614;50.032;19.566;2024-01-11T05:43:23;99633.01;;;-9.75;71.58
84271;BME280;74614;50.032;19.566;2024-01-11T05:45:22;99627.12;;;-9.77;71.57
84271;BME280;74614;50.032;19.566;2024-01-11T05:47:23;99628.41;;;-9.77;71.60
84271;BME280;74614;50.032;19.566;2024-01-11T05:49:23;99644.08;;;-9.77;71.69
84271;BME280;74614;50.032;19.566;2024-01-11T05:51:23;99635.55;;;-9.78;71.41
84271;BME280;74614;50.032;19.566;2024-01-11T05:53:32;99639.10;;;-9.73;71.23
84271;BME280;74614;50.032;19.566;2024-01-11T05:55:26;99644.08;;;-9.69;71.10
84271;BME280;74614;50.032;19.566;2024-01-11T05:57:24;99648.04;;;-9.70;71.04
84271;BME280;74614;50.032;19.566;2024-01-11T05:59:23;99662.93;;;-9.68;70.74
84271;BME280;74614;50.032;19.566;2024-01-11T06:01:24;99665.06;;;-9.70;70.87
84271;BME280;74614;50.032;19.566;2024-01-11T06:03:30;99655.32;;;-9.65;70.93
84271;BME280;74614;50.032;19.566;2024-01-11T06:05:25;99651.32;;;-9.63;70.79
84271;BME280;74614;50.032;19.566;2024-01-11T06:07:24;99644.61;;;-9.61;70.85
84271;BME280;74614;50.032;19.566;2024-01-11T06:09:24;99634.36;;;-9.56;71.05
84271;BME280;74614;50.032;19.566;2024-01-11T06:11:41;99621.81;;;-9.62;71.34
84271;BME280;74614;50.032;19.566;2024-01-11T06:14:22;99627.45;;;-9.46;71.14
84271;BME280;74614;50.032;19.566;2024-01-11T06:16:21;99626.63;;;-9.43;71.31
84271;BME280;74614;50.032;19.566;2024-01-11T06:18:24;99635.48;;;-9.32;71.02
84271;BME280;74614;50.032;19.566;2024-01-11T06:20:22;99638.26;;;-9.28;70.93
84271;BME280;74614;50.032;19.566;2024-01-11T06:22:22;99644.07;;;-9.22;70.81
84271;BME280;74614;50.032;19.566;2024-01-11T06:24:19;99639.79;;;-9.14;70.66
84271;BME280;74614;50.032;19.566;2024-01-11T06:26:23;99648.05;;;-9.08;70.58
84271;BME280;74614;50.032;19.566;2024-01-11T06:28:20;99656.77;;;-9.04;70.40
84271;BME280;74614;50.032;19.566;2024-01-11T06:30:24;99646.56;;;-9.00;70.33
84271;BME280;74614;50.032;19.566;2024-01-11T06:32:20;99641.40;;;-8.88;70.23
84271;BME280;74614;50.032;19.566;2024-01-11T06:34:22;99630.32;;;-8.78;69.80
84271;BME280;74614;50.032;19.566;2024-01-11T06:36:21;99637.85;;;-8.68;69.87
84271;BME280;74614;50.032;19.566;2024-01-11T06:38:27;99635.63;;;-8.60;69.55
84271;BME280;74614;50.032;19.566;2024-01-11T06:41:23;99626.88;;;-8.48;69.31
84271;BME280;74614;50.032;19.566;2024-01-11T06:43:23;99620.43;;;-8.44;68.92
84271;BME280;74614;50.032;19.566;2024-01-11T06:45:24;99602.87;;;-8.29;68.77
84271;BME280;74614;50.032;19.566;2024-01-11T06:47:24;99602.31;;;-8.30;68.51
84271;BME280;74614;50.032;19.566;2024-01-11T06:49:26;99612.22;;;-8.23;68.27
84271;BME280;74614;50.032;19.566;2024-01-11T06:51:24;99606.73;;;-8.22;68.25
84271;BME280;74614;50.032;19.566;2024-01-11T06:53:23;99593.74;;;-8.24;68.15
84271;BME280;74614;50.032;19.566;2024-01-11T06:55:24;99590.50;;;-8.24;68.04
84271;BME280;74614;50.032;19.566;2024-01-11T06:57:23;99579.89;;;-8.33;67.99
84271;BME280;74614;50.032;19.566;2024-01-11T06:59:27;99570.95;;;-8.37;68.10
84271;BME280;74614;50.032;19.566;2024-01-11T07:01:28;99566.02;;;-8.39;68.42
84271;BME280;74614;50.032;19.566;2024-01-11T07:03:27;99558.93;;;-8.40;67.87
84271;BME280;74614;50.032;19.566;2024-01-11T07:05:23;99547.25;;;-8.58;67.59
84271;BME280;74614;50.032;19.566;2024-01-11T07:07:26;99553.78;;;-8.81;67.75
84271;BME280;74614;50.032;19.566;2024-01-11T07:09:25;99549.02;;;-8.97;67.90
84271;BME280;74614;50.032;19.566;2024-01-11T07:11:26;99543.71;;;-9.18;68.24
84271;BME280;74614;50.032;19.566;2024-01-11T07:13:25;99552.71;;;-9.25;69.19
84271;BME280;74614;50.032;19.566;2024-01-11T07:15:28;99552.30;;;-9.28;68.75
84271;BME280;74614;50.032;19.566;2024-01-11T07:17:24;99547.38;;;-9.27;69.75
84271;BME280;74614;50.032;19.566;2024-01-11T07:19:24;99539.12;;;-9.18;70.21
84271;BME280;74614;50.032;19.566;2024-01-11T07:21:25;99539.92;;;-9.11;70.00
84271;BME280;74614;50.032;19.566;2024-01-11T07:23:30;99543.45;;;-9.02;69.70
84271;BME280;74614;50.032;19.566;2024-01-11T07:25:24;99536.64;;;-9.03;69.54
84271;BME280;74614;50.032;19.566;2024-01-11T07:27:25;99532.94;;;-9.02;69.32
84271;BME280;74614;50.032;19.566;2024-01-11T07:29:25;99542.71;;;-9.01;69.15
84271;BME280;74614;50.032;19.566;2024-01-11T07:31:26;99533.04;;;-9.05;68.80
84271;BME280;74614;50.032;19.566;2024-01-11T07:33:23;99539.29;;;-9.14;69.32
84271;BME280;74614;50.032;19.566;2024-01-11T07:35:27;99519.18;;;-9.17;69.38
84271;BME280;74614;50.032;19.566;2024-01-11T07:37:27;99518.33;;;-9.12;69.51
84271;BME280;74614;50.032;19.566;2024-01-11T07:39:23;99523.34;;;-9.12;69.57
84271;BME280;74614;50.032;19.566;2024-01-11T07:41:25;99529.01;;;-9.04;69.55
84271;BME280;74614;50.032;19.566;2024-01-11T07:43:27;99533.31;;;-8.91;69.49
84271;BME280;74614;50.032;19.566;2024-01-11T07:45:25;99539.27;;;-8.83;69.32
84271;BME280;74614;50.032;19.566;2024-01-11T07:47:23;99537.68;;;-8.69;69.20
84271;BME280;74614;50.032;19.566;2024-01-11T07:49:29;99545.27;;;-8.56;69.05
84271;BME280;74614;50.032;19.566;2024-01-11T07:51:27;99545.62;;;-8.47;68.72
84271;BME280;74614;50.032;19.566;2024-01-11T07:53:25;99537.76;;;-8.44;68.26
84271;BME280;74614;50.032;19.566;2024-01-11T07:55:28;99532.18;;;-8.32;68.17
84271;BME280;74614;50.032;19.566;2024-01-11T07:57:24;99534.33;;;-8.16;67.97
84271;BME280;74614;50.032;19.566;2024-01-11T07:59:24;99532.82;;;-8.02;67.77
84271;BME280;74614;50.032;19.566;2024-01-11T08:01:26;99531.46;;;-7.88;67.53
84271;BME280;74614;50.032;19.566;2024-01-11T08:03:24;99536.55;;;-7.75;67.11
84271;BME280;74614;50.032;19.566;2024-01-11T08:05:25;99538.63;;;-7.49;66.85
84271;BME280;74614;50.032;19.566;2024-01-11T08:07:27;99535.22;;;-7.12;66.53
84271;BME280;74614;50.032;19.566;2024-01-11T08:09:27;99528.35;;;-6.95;66.00
84271;BME280;74614;50.032;19.566;2024-01-11T08:11:25;99527.71;;;-6.97;65.41
84271;BME280;74614;50.032;19.566;2024-01-11T08:13:27;99521.50;;;-6.82;65.91
84271;BME280;74614;50.032;19.566;2024-01-11T08:15:23;99523.63;;;-6.84;65.49
84271;BME280;74614;50.032;19.566;2024-01-11T08:17:32;99517.39;;;-6.78;65.50
84271;BME280;74614;50.032;19.566;2024-01-11T08:19:24;99503.14;;;-6.78;65.44
84271;BME280;74614;50.032;19.566;2024-01-11T08:21:25;99503.04;;;-6.74;65.53
84271;BME280;74614;50.032;19.566;2024-01-11T08:23:25;99504.20;;;-6.68;65.30
84271;BME280;74614;50.032;19.566;2024-01-11T08:25:47;99497.23;;;-6.58;65.58
84271;BME280;74614;50.032;19.566;2024-01-11T08:28:27;99485.60;;;-6.34;65.37
84271;BME280;74614;50.032;19.566;2024-01-11T08:30:29;99490.24;;;-6.24;65.01
84271;BME280;74614;50.032;19.566;2024-01-11T08:32:24;99505.86;;;-6.19;64.93
84271;BME280;74614;50.032;19.566;2024-01-11T08:34:32;99501.19;;;-6.15;64.83
84271;BME280;74614;50.032;19.566;2024-01-11T08:36:31;99495.07;;;-6.20;64.94
84271;BME280;74614;50.032;19.566;2024-01-11T08:38:28;99490.73;;;-6.22;65.20
84271;BME280;74614;50.032;19.566;2024-01-11T08:40:24;99487.37;;;-6.17;65.06
84271;BME280;74614;50.032;19.566;2024-01-11T08:42:29;99482.51;;;-6.26;65.14
84271;BME280;74614;50.032;19.566;2024-01-11T08:44:23;99490.67;;;-6.19;65.54
84271;BME280;74614;50.032;19.566;2024-01-11T08:46:31;99493.45;;;-6.18;65.43
84271;BME280;74614;50.032;19.566;2024-01-11T08:48:27;99503.00;;;-6.09;65.48
84271;BME280;74614;50.032;19.566;2024-01-11T08:50:27;99494.82;;;-6.06;65.92
84271;BME280;74614;50.032;19.566;2024-01-11T08:52:28;99490.39;;;-6.10;65.37
84271;BME280;74614;50.032;19.566;2024-01-11T08:54:32;99499.75;;;-5.94;65.65
84271;BME280;74614;50.032;19.566;2024-01-11T08:56:24;99501.32;;;-5.91;65.58
84271;BME280;74614;50.032;19.566;2024-01-11T08:58:33;99500.16;;;-5.87;65.24
84271;BME280;74614;50.032;19.566;2024-01-11T09:00:24;99494.90;;;-5.77;64.99
84271;BME280;74614;50.032;19.566;2024-01-11T09:02:30;99482.02;;;-5.80;65.48
84271;BME280;74614;50.032;19.566;2024-01-11T09:04:28;99484.59;;;-5.78;65.76
84271;BME280;74614;50.032;19.566;2024-01-11T09:06:29;99485.11;;;-5.72;65.80
84271;BME280;74614;50.032;19.566;2024-01-11T09:08:24;99486.11;;;-5.62;65.31
84271;BME280;74614;50.032;19.566;2024-01-11T09:10:31;99494.61;;;-5.46;65.16
84271;BME280;74614;50.032;19.566;2024-01-11T09:12:32;99505.93;;;-5.35;64.90
84271;BME280;74614;50.032;19.566;2024-01-11T09:14:26;99503.37;;;-5.29;64.35
84271;BME280;74614;50.032;19.566;2024-01-11T09:16:24;99513.20;;;-5.13;65.17
84271;BME280;74614;50.032;19.566;2024-01-11T09:18:31;99511.09;;;-5.05;64.90
84271;BME280;74614;50.032;19.566;2024-01-11T09:20:36;99511.41;;;-5.01;64.54
84271;BME280;74614;50.032;19.566;2024-01-11T09:22:30;99506.51;;;-5.15;64.03
84271;BME280;74614;50.032;19.566;2024-01-11T09:24:25;99510.15;;;-5.14;64.11
84271;BME280;74614;50.032;19.566;2024-01-11T09:26:29;99508.82;;;-5.09;64.95
84271;BME280;74614;50.032;19.566;2024-01-11T09:28:24;99506.08;;;-5.00;64.34
84271;BME280;74614;50.032;19.566;2024-01-11T09:30:41;99502.32;;;-4.93;64.48
84271;BME280;74614;50.032;19.566;2024-01-11T09:33:25;99507.82;;;-4.83;63.50
84271;BME280;74614;50.032;19.566;2024-01-11T09:35:25;99498.21;;;-4.71;62.96
84271;BME280;74614;50.032;19.566;2024-01-11T09:37:27;99492.88;;;-4.53;63.64
84271;BME280;74614;50.032;19.566;2024-01-11T09:39:24;99495.50;;;-4.45;61.82
84271;BME280;74614;50.032;19.566;2024-01-11T09:41:31;99490.58;;;-4.27;61.66
84271;BME280;74614;50.032;19.566;2024-01-11T09:43:26;99473.49;;;-4.10;61.61
84271;BME280;74614;50.032;19.566;2024-01-11T09:45:26;99483.84;;;-3.94;61.59
84271;BME280;74614;50.032;19.566;2024-01-11T09:47:26;99487.47;;;-3.85;61.65
84271;BME280;74614;50.032;19.566;2024-01-11T09:49:24;99475.77;;;-3.86;61.42
84271;BME280;74614;50.032;19.566;2024-01-11T09:51:25;99475.90;;;-3.85;61.05
84271;BME280;74614;50.032;19.566;2024-01-11T09:53:29;99468.79;;;-3.76;61.23
84271;BME280;74614;50.032;19.566;2024-01-11T09:55:26;99459.82;;;-3.72;60.65
84271;BME280;74614;50.032;19.566;2024-01-11T09:57:30;99448.38;;;-3.60;61.07
84271;BME280;74614;50.032;19.566;2024-01-11T09:59:28;99447.71;;;-3.49;61.05
84271;BME280;74614;50.032;19.566;2024-01-11T10:01:24;99448.86;;;-3.44;60.89
84271;BME280;74614;50.032;19.566;2024-01-11T10:03:25;99445.90;;;-3.46;60.58
84271;BME280;74614;50.032;19.566;2024-01-11T10:05:30;99439.85;;;-3.44;60.49
84271;BME280;74614;50.032;19.566;2024-01-11T10:07:26;99438.29;;;-3.40;60.47
84271;BME280;74614;50.032;19.566;2024-01-11T10:09:24;99426.03;;;-3.43;59.65
84271;BME280;74614;50.032;19.566;2024-01-11T10:11:25;99418.71;;;-3.42;59.28
84271;BME280;74614;50.032;19.566;2024-01-11T10:13:27;99421.71;;;-3.37;59.71
84271;BME280;74614;50.032;19.566;2024-01-11T10:15:26;99425.54;;;-3.27;59.54
84271;BME280;74614;50.032;19.566;2024-01-11T10:17:26;99426.69;;;-3.20;58.95
84271;BME280;74614;50.032;19.566;2024-01-11T10:19:27;99425.69;;;-3.14;58.79
84271;BME280;74614;50.032;19.566;2024-01-11T10:21:27;99422.32;;;-3.20;57.60
84271;BME280;74614;50.032;19.566;2024-01-11T10:23:25;99417.09;;;-3.08;58.11
84271;BME280;74614;50.032;19.566;2024-01-11T10:25:25;99416.42;;;-3.06;57.32
84271;BME280;74614;50.032;19.566;2024-01-11T10:27:28;99404.75;;;-3.05;57.56